Klamath Falls, Oregon
Current Conditions -  °F | °C
As of 9:53 PM on Friday 24 Oct 2014 (Local Time) from KLMT Reporting Station
Clear Clear  
Wind Chill: 56°   Ceiling: Unl
Heat Index: 56°   Visibility: 10mi
Dew Point: 36°   Wind: 28mph
Humidity: 47%   Direction: 160°SSE
Pressure: 29.85"   Gusts: 40mph
Location:  42.22°N, 121.78°W
Report Text: KLMT 250453Z 16024G35KT 10SM CLR 13/02 A2985 RMK AO2 PK WND 16035/0447 SLP090 T01330022
Loading
Personal Weather Stations






























Interactive Weather Map
Tropical Storm Tracking
New forecast layout! Learn more

10-Day Weather Forecast

Advertisements
Track Severe Weather on mobile